createdAt,value
2019-03-27T00:00:28.160Z,17.32
2019-03-27T00:02:59.624Z,14.67
2019-03-27T00:05:31.331Z,17.53
2019-03-27T00:08:02.775Z,14.07
2019-03-27T00:10:34.589Z,14.10
2019-03-27T00:13:06.779Z,17.32
2019-03-27T00:15:38.516Z,14.90
2019-03-27T00:18:10.070Z,16.40
2019-03-27T00:20:41.473Z,14.70
2019-03-27T00:23:12.925Z,13.43
2019-03-27T00:25:44.417Z,15.10
2019-03-27T00:28:16.156Z,13.90
2019-03-27T00:30:47.628Z,15.40
2019-03-27T00:33:19.292Z,16.65
2019-03-27T00:35:50.693Z,17.17
2019-03-27T00:38:22.348Z,16.60
2019-03-27T00:40:53.844Z,16.47
2019-03-27T00:43:25.358Z,15.17
2019-03-27T00:45:56.819Z,16.70
2019-03-27T00:48:28.511Z,14.77
2019-03-27T00:50:59.956Z,16.80
2019-03-27T00:53:31.439Z,17.27
2019-03-27T00:56:02.881Z,14.10
2019-03-27T00:58:34.399Z,16.03
2019-03-27T01:01:14.163Z,14.10
2019-03-27T01:03:45.771Z,13.77
2019-03-27T01:06:17.592Z,14.83
2019-03-27T01:08:48.986Z,15.50
2019-03-27T01:11:20.391Z,15.53
2019-03-27T01:13:51.918Z,12.93
2019-03-27T01:16:23.510Z,18.27
2019-03-27T01:18:54.930Z,19.10
2019-03-27T01:21:26.622Z,14.13
2019-03-27T01:23:58.040Z,13.73
2019-03-27T01:26:29.506Z,15.00
2019-03-27T01:29:02.218Z,16.60
2019-03-27T01:31:33.622Z,17.13
2019-03-27T01:34:05.078Z,15.57
2019-03-27T01:36:36.746Z,15.90
2019-03-27T01:39:09.296Z,17.70
2019-03-27T01:41:40.758Z,15.50
2019-03-27T01:44:12.758Z,16.93
2019-03-27T01:46:44.162Z,20.17
2019-03-27T01:49:15.901Z,17.77
2019-03-27T01:51:47.399Z,18.17
2019-03-27T01:54:18.870Z,16.13
2019-03-27T01:56:50.581Z,17.00
2019-03-27T01:59:22.032Z,17.73
2019-03-27T02:01:53.600Z,18.93
2019-03-27T02:04:25.022Z,20.30
2019-03-27T02:06:56.810Z,17.73
2019-03-27T02:09:28.210Z,17.27
2019-03-27T02:11:59.710Z,20.07
2019-03-27T02:14:31.255Z,19.60
2019-03-27T02:17:03.142Z,17.03
2019-03-27T02:19:34.725Z,16.47
2019-03-27T02:22:06.954Z,17.07
2019-03-27T02:24:38.673Z,15.35
2019-03-27T02:27:10.094Z,18.23
2019-03-27T02:29:41.692Z,18.33
2019-03-27T02:32:13.174Z,16.85
2019-03-27T02:34:44.715Z,16.97
2019-03-27T02:37:16.101Z,15.35
2019-03-27T02:39:47.812Z,15.65
2019-03-27T02:42:19.294Z,16.43
2019-03-27T02:44:50.843Z,17.60
2019-03-27T02:47:22.237Z,17.63
2019-03-27T02:49:53.811Z,19.77
2019-03-27T02:52:25.247Z,22.67
2019-03-27T02:54:57.063Z,18.50
2019-03-27T02:57:28.433Z,18.43
2019-03-27T02:59:59.853Z,18.97
2019-03-27T03:02:31.261Z,17.87
2019-03-27T03:05:03.160Z,18.80
2019-03-27T03:07:34.694Z,16.33
2019-03-27T03:10:07.154Z,17.10
2019-03-27T03:12:38.885Z,17.60
2019-03-27T03:15:10.995Z,18.53
2019-03-27T03:17:42.683Z,19.80
2019-03-27T03:20:14.502Z,18.17
2019-03-27T03:22:45.940Z,17.63
2019-03-27T03:25:17.540Z,20.12
2019-03-27T03:27:48.970Z,17.53
2019-03-27T03:30:20.378Z,20.03
2019-03-27T03:32:51.914Z,19.23
2019-03-27T03:35:23.329Z,15.57
2019-03-27T03:37:54.987Z,23.30
2019-03-27T03:40:26.367Z,18.90
2019-03-27T03:42:58.043Z,19.43
2019-03-27T03:45:29.508Z,19.33
2019-03-27T03:48:00.921Z,20.80
2019-03-27T03:50:41.907Z,24.57
2019-03-27T03:53:15.602Z,17.42
2019-03-27T03:55:47.153Z,18.67
2019-03-27T03:58:20.121Z,20.27
2019-03-27T04:00:52.502Z,18.07
2019-03-27T04:03:27.186Z,23.00
2019-03-27T04:05:58.910Z,21.43
2019-03-27T04:08:30.379Z,22.97
2019-03-27T04:11:03.229Z,17.05
2019-03-27T04:13:34.900Z,16.60
2019-03-27T04:16:06.722Z,16.80
2019-03-27T04:18:38.148Z,18.57
2019-03-27T04:21:09.827Z,17.55
2019-03-27T04:23:41.230Z,21.97
2019-03-27T04:26:13.011Z,18.60
2019-03-27T04:28:44.444Z,20.43
2019-03-27T04:31:16.241Z,20.30
2019-03-27T04:33:47.664Z,18.13
2019-03-27T04:36:19.067Z,21.33
2019-03-27T04:38:50.477Z,19.93
2019-03-27T04:41:21.983Z,18.90
2019-03-27T04:43:53.410Z,22.47
2019-03-27T04:46:25.145Z,15.90
2019-03-27T04:48:56.532Z,17.20
2019-03-27T04:51:28.169Z,16.10
2019-03-27T04:53:59.638Z,25.17
2019-03-27T04:56:31.107Z,20.13
2019-03-27T04:59:03.338Z,18.45
2019-03-27T05:01:35.051Z,22.40
2019-03-27T05:04:08.281Z,23.77
2019-03-27T05:06:39.721Z,22.40
2019-03-27T05:09:11.218Z,21.67
2019-03-27T05:11:42.625Z,19.13
2019-03-27T05:14:14.355Z,22.77
2019-03-27T05:16:46.116Z,23.07
2019-03-27T05:19:17.561Z,21.30
2019-03-27T05:21:49.224Z,22.33
2019-03-27T05:24:20.672Z,20.50
2019-03-27T05:26:52.092Z,17.57
2019-03-27T05:29:23.561Z,18.93
2019-03-27T05:31:55.191Z,20.77
2019-03-27T05:34:26.614Z,21.77
2019-03-27T05:36:58.341Z,23.47
2019-03-27T05:39:29.874Z,27.50
2019-03-27T05:42:01.293Z,33.13
2019-03-27T05:44:32.754Z,23.67
2019-03-27T05:47:04.515Z,23.43
2019-03-27T05:49:36.180Z,19.83
2019-03-27T05:52:07.636Z,17.75
2019-03-27T05:54:39.292Z,21.57
2019-03-27T05:57:10.731Z,22.67
2019-03-27T05:59:42.257Z,19.60
2019-03-27T06:02:13.675Z,20.90
2019-03-27T06:04:45.198Z,24.37
2019-03-27T06:07:16.879Z,20.73
2019-03-27T06:09:48.289Z,25.07
2019-03-27T06:12:19.784Z,24.30
2019-03-27T06:14:51.185Z,22.37
2019-03-27T06:17:22.635Z,23.83
2019-03-27T06:19:54.286Z,23.03
2019-03-27T06:22:25.753Z,25.80
2019-03-27T06:24:57.337Z,21.00
2019-03-27T06:27:28.804Z,25.43
2019-03-27T06:30:00.407Z,25.20
2019-03-27T06:32:31.805Z,27.60
2019-03-27T06:35:03.583Z,25.27
2019-03-27T06:37:35.267Z,24.40
2019-03-27T06:40:07.863Z,19.07
2019-03-27T06:42:39.465Z,22.90
2019-03-27T06:45:11.103Z,25.83
2019-03-27T06:47:42.530Z,20.90
2019-03-27T06:50:14.265Z,29.57
2019-03-27T06:52:45.706Z,23.93
2019-03-27T06:55:17.618Z,25.92
2019-03-27T06:57:49.031Z,25.87
2019-03-27T07:00:32.764Z,22.63
2019-03-27T07:03:04.336Z,26.43
2019-03-27T07:05:35.793Z,22.57
2019-03-27T07:08:07.659Z,19.05
2019-03-27T07:10:39.392Z,22.57
2019-03-27T07:13:11.136Z,20.93
2019-03-27T07:15:42.615Z,25.40
2019-03-27T07:18:14.360Z,24.55
2019-03-27T07:20:45.891Z,20.53
2019-03-27T07:23:17.857Z,24.65
2019-03-27T07:25:49.320Z,23.27
2019-03-27T07:28:21.101Z,23.00
2019-03-27T07:30:52.575Z,21.80
2019-03-27T07:33:24.136Z,36.47
2019-03-27T07:35:55.621Z,24.27
2019-03-27T07:38:27.351Z,23.60
2019-03-27T07:40:58.758Z,22.63
2019-03-27T07:43:30.425Z,21.63
2019-03-27T07:46:03.704Z,20.97
2019-03-27T07:48:35.475Z,22.70
2019-03-27T07:51:06.976Z,25.97
2019-03-27T07:53:38.361Z,19.53
2019-03-27T07:56:09.860Z,20.50
2019-03-27T07:58:41.499Z,21.07
2019-03-27T08:01:13.183Z,18.53
2019-03-27T08:03:44.810Z,18.37
2019-03-27T08:06:16.727Z,18.87
2019-03-27T08:08:48.583Z,17.87
2019-03-27T08:11:20.020Z,14.60
2019-03-27T08:13:51.705Z,16.23
2019-03-27T08:16:23.664Z,18.10
2019-03-27T08:19:06.980Z,14.90
2019-03-27T08:21:31.216Z,15.73
2019-03-27T08:24:01.701Z,12.47
2019-03-27T08:26:33.128Z,15.70
2019-03-27T08:29:04.864Z,15.90
2019-03-27T08:31:36.584Z,13.77
2019-03-27T08:34:08.041Z,16.15
2019-03-27T08:36:39.681Z,14.20
2019-03-27T08:39:11.346Z,13.93
2019-03-27T08:41:42.828Z,14.63
2019-03-27T08:44:14.591Z,12.40
2019-03-27T08:46:46.037Z,7.20
2019-03-27T08:49:22.336Z,9.30
2019-03-27T08:51:50.989Z,5.70
2019-03-27T08:54:22.749Z,4.90
2019-03-27T08:56:54.471Z,4.72
2019-03-27T08:59:25.912Z,7.23
2019-03-27T09:01:57.545Z,6.10
2019-03-27T09:04:28.983Z,10.97
2019-03-27T09:07:00.704Z,5.22
2019-03-27T09:09:32.170Z,6.10
2019-03-27T09:12:04.107Z,7.80
2019-03-27T09:14:36.371Z,6.00
2019-03-27T09:17:07.812Z,4.92
2019-03-27T09:19:39.522Z,9.53
2019-03-27T09:22:11.271Z,7.03
2019-03-27T09:24:42.741Z,7.90
2019-03-27T09:27:14.199Z,9.67
2019-03-27T09:29:45.630Z,7.47
2019-03-27T09:32:17.325Z,4.70
2019-03-27T09:34:48.753Z,5.60
2019-03-27T09:37:20.471Z,5.42
2019-03-27T09:39:53.428Z,7.43
2019-03-27T09:42:24.859Z,8.33
2019-03-27T09:44:56.295Z,7.03
2019-03-27T09:47:27.763Z,5.90
2019-03-27T09:49:59.256Z,6.60
2019-03-27T09:52:30.646Z,7.60
2019-03-27T09:55:03.355Z,6.30
2019-03-27T09:57:34.856Z,8.83
2019-03-27T10:00:07.308Z,8.00
2019-03-27T10:02:38.749Z,6.60
2019-03-27T10:05:10.510Z,7.03
2019-03-27T10:07:41.988Z,4.93
2019-03-27T10:10:14.001Z,6.85
2019-03-27T10:12:45.483Z,7.67
2019-03-27T10:15:16.966Z,4.10
2019-03-27T10:17:48.454Z,3.83
2019-03-27T10:20:19.937Z,3.97
2019-03-27T10:22:51.613Z,5.22
2019-03-27T10:25:23.437Z,5.20
2019-03-27T10:27:54.909Z,4.67
2019-03-27T10:30:26.426Z,4.90
2019-03-27T10:32:57.886Z,3.50
2019-03-27T10:35:29.367Z,3.37
2019-03-27T10:38:00.859Z,5.70
2019-03-27T10:40:32.298Z,6.33
2019-03-27T10:43:05.987Z,6.12
2019-03-27T10:45:37.447Z,4.30
2019-03-27T10:48:08.854Z,5.97
2019-03-27T10:50:40.376Z,5.10
2019-03-27T10:53:12.083Z,5.17
2019-03-27T10:55:43.777Z,5.37
2019-03-27T10:58:15.563Z,4.12
2019-03-27T11:00:47.029Z,5.30
2019-03-27T11:03:18.802Z,5.47
2019-03-27T11:05:50.218Z,4.43
2019-03-27T11:08:22.169Z,6.17
2019-03-27T11:10:53.780Z,4.67
2019-03-27T11:13:25.249Z,4.90
2019-03-27T11:15:56.984Z,5.47
2019-03-27T11:18:28.520Z,4.00
2019-03-27T11:20:59.993Z,3.43
2019-03-27T11:23:31.477Z,4.00
2019-03-27T11:26:04.187Z,4.37
2019-03-27T11:28:35.837Z,7.90
2019-03-27T11:31:07.635Z,3.63
2019-03-27T11:33:39.045Z,3.30
2019-03-27T11:36:10.505Z,5.47
2019-03-27T11:38:41.985Z,4.23
2019-03-27T11:41:14.107Z,6.83
2019-03-27T11:43:54.703Z,4.47
2019-03-27T11:46:19.316Z,6.93
2019-03-27T11:48:51.009Z,4.47
2019-03-27T11:51:22.459Z,3.50
2019-03-27T11:53:53.960Z,3.83
2019-03-27T11:56:25.514Z,3.50
2019-03-27T11:58:56.935Z,2.77
2019-03-27T12:01:39.186Z,5.17
2019-03-27T12:04:01.595Z,3.43
2019-03-27T12:06:33.102Z,4.40
2019-03-27T12:09:05.998Z,2.83
2019-03-27T12:11:37.939Z,2.90
2019-03-27T12:14:12.259Z,3.23
2019-03-27T12:16:42.985Z,3.07
2019-03-27T12:19:14.598Z,4.40
2019-03-27T12:21:46.106Z,4.27
2019-03-27T12:24:17.716Z,3.60
2019-03-27T12:26:49.103Z,3.57
2019-03-27T12:29:20.581Z,3.58
2019-03-27T12:31:52.257Z,5.37
2019-03-27T12:34:23.935Z,3.97
2019-03-27T12:36:55.423Z,5.07
2019-03-27T12:39:27.125Z,6.70
2019-03-27T12:41:58.569Z,5.73
2019-03-27T12:44:30.135Z,5.80
2019-03-27T12:47:01.636Z,4.63
2019-03-27T12:49:33.218Z,3.77
2019-03-27T12:52:05.572Z,4.60
2019-03-27T12:54:37.158Z,2.90
2019-03-27T12:57:08.571Z,2.47
2019-03-27T12:59:40.059Z,3.77
2019-03-27T13:02:11.830Z,3.60
2019-03-27T13:04:43.287Z,3.87
2019-03-27T13:07:14.836Z,3.00
2019-03-27T13:09:46.232Z,4.07
2019-03-27T13:12:17.686Z,3.90
2019-03-27T13:14:50.488Z,4.80
2019-03-27T13:17:22.671Z,3.05
2019-03-27T13:19:54.144Z,5.20
2019-03-27T13:22:25.678Z,3.33
2019-03-27T13:24:57.287Z,3.67
2019-03-27T13:27:28.753Z,3.33
2019-03-27T13:30:00.391Z,2.87
2019-03-27T13:32:32.128Z,2.50
2019-03-27T13:35:04.541Z,2.75
2019-03-27T13:37:36.253Z,3.03
2019-03-27T13:40:09.007Z,2.70
2019-03-27T13:42:40.483Z,2.33
2019-03-27T13:45:12.724Z,3.80
2019-03-27T13:47:44.182Z,3.50
2019-03-27T13:50:17.889Z,3.60
2019-03-27T13:52:49.330Z,3.93
2019-03-27T13:55:20.759Z,3.45
2019-03-27T13:57:52.309Z,2.93
2019-03-27T14:00:25.204Z,2.65
2019-03-27T14:02:56.621Z,3.57
2019-03-27T14:05:28.263Z,4.73
2019-03-27T14:07:59.811Z,2.80
2019-03-27T14:10:31.511Z,3.23
2019-03-27T14:13:04.603Z,2.18
2019-03-27T14:15:36.479Z,3.60
2019-03-27T14:18:08.245Z,2.08
2019-03-27T14:20:39.651Z,3.60
2019-03-27T14:23:11.266Z,2.90
2019-03-27T14:25:42.696Z,4.20
2019-03-27T14:28:14.632Z,4.03
2019-03-27T14:30:57.575Z,5.30
2019-03-27T14:33:29.362Z,3.87
2019-03-27T14:36:01.129Z,2.02
2019-03-27T14:38:32.905Z,3.13
2019-03-27T14:41:04.559Z,3.30
2019-03-27T14:43:36.296Z,2.33
2019-03-27T14:46:08.162Z,3.67
2019-03-27T14:48:39.634Z,2.33
2019-03-27T14:51:11.554Z,2.93
2019-03-27T14:53:43.307Z,5.10
2019-03-27T14:56:14.743Z,3.50
2019-03-27T14:58:46.347Z,4.20
2019-03-27T15:01:18.082Z,4.27
2019-03-27T15:03:49.557Z,4.50
2019-03-27T15:06:25.679Z,3.75
2019-03-27T15:08:57.508Z,2.80
2019-03-27T15:11:29.377Z,3.97
2019-03-27T15:14:00.849Z,2.20
2019-03-27T15:16:32.296Z,2.40
2019-03-27T15:19:04.740Z,4.00
2019-03-27T15:21:36.470Z,4.00
2019-03-27T15:24:08.308Z,4.87
2019-03-27T15:26:40.074Z,2.43
2019-03-27T15:29:11.858Z,3.17
2019-03-27T15:31:43.503Z,3.03
2019-03-27T15:34:15.316Z,5.70
2019-03-27T15:36:46.814Z,6.87
2019-03-27T15:39:18.570Z,2.47
2019-03-27T15:41:50.064Z,3.60
2019-03-27T15:44:21.806Z,4.22
2019-03-27T15:46:53.389Z,3.47
2019-03-27T15:49:24.864Z,7.33
2019-03-27T15:51:56.672Z,2.90
2019-03-27T15:54:28.119Z,4.70
2019-03-27T15:57:00.071Z,5.10
2019-03-27T15:59:31.533Z,2.67
2019-03-27T16:02:04.280Z,5.07
2019-03-27T16:04:38.669Z,4.77
2019-03-27T16:07:08.952Z,2.42
2019-03-27T16:09:40.614Z,3.27
2019-03-27T16:12:12.676Z,6.20
2019-03-27T16:14:44.475Z,4.50
2019-03-27T16:17:16.247Z,4.87
2019-03-27T16:19:47.742Z,5.63
2019-03-27T16:22:19.230Z,4.00
2019-03-27T16:24:50.826Z,4.00
2019-03-27T16:27:22.848Z,4.33
2019-03-27T16:29:54.455Z,3.83
2019-03-27T16:32:26.181Z,3.13
2019-03-27T16:34:57.689Z,3.47
2019-03-27T16:37:29.154Z,3.33
2019-03-27T16:40:00.672Z,2.23
2019-03-27T16:42:32.170Z,3.87
2019-03-27T16:45:05.257Z,3.27
2019-03-27T16:47:36.778Z,5.50
2019-03-27T16:50:13.721Z,3.73
2019-03-27T16:52:46.782Z,2.40
2019-03-27T16:55:18.770Z,4.45
2019-03-27T16:57:51.433Z,4.10
2019-03-27T17:00:23.077Z,4.20
2019-03-27T17:02:54.643Z,4.13
2019-03-27T17:05:26.060Z,3.53
2019-03-27T17:07:57.695Z,3.73
2019-03-27T17:10:29.415Z,5.20
2019-03-27T17:13:00.986Z,3.57
2019-03-27T17:15:32.805Z,7.73
2019-03-27T17:18:05.488Z,3.37
2019-03-27T17:20:36.885Z,2.13
2019-03-27T17:23:18.057Z,3.17
2019-03-27T17:25:42.180Z,4.03
2019-03-27T17:28:13.890Z,4.60
2019-03-27T17:30:45.679Z,4.00
2019-03-27T17:33:17.159Z,5.60
2019-03-27T17:35:48.695Z,5.27
2019-03-27T17:38:20.833Z,6.55
2019-03-27T17:40:52.302Z,2.47
2019-03-27T17:43:24.072Z,5.47
2019-03-27T17:45:56.286Z,4.07
2019-03-27T17:48:27.764Z,2.97
2019-03-27T17:50:59.254Z,5.83
2019-03-27T17:53:31.944Z,5.83
2019-03-27T17:56:04.937Z,3.22
2019-03-27T17:58:36.617Z,4.60
2019-03-27T18:01:08.597Z,4.57
2019-03-27T18:03:40.250Z,2.80
2019-03-27T18:06:14.893Z,4.60
2019-03-27T18:08:46.857Z,4.30
2019-03-27T18:11:18.954Z,4.47
2019-03-27T18:13:50.678Z,9.47
2019-03-27T18:16:22.299Z,8.08
2019-03-27T18:18:54.001Z,10.70
2019-03-27T18:21:25.519Z,5.57
2019-03-27T18:23:57.030Z,7.63
2019-03-27T18:26:28.990Z,8.20
2019-03-27T18:29:00.704Z,5.33
2019-03-27T18:31:32.223Z,5.07
2019-03-27T18:34:05.086Z,6.65
2019-03-27T18:36:36.896Z,6.30
2019-03-27T18:39:10.748Z,4.13
2019-03-27T18:41:42.222Z,7.67
2019-03-27T18:44:13.917Z,3.93
2019-03-27T18:46:45.398Z,5.53
2019-03-27T18:49:17.117Z,4.90
2019-03-27T18:51:48.594Z,4.60
2019-03-27T18:54:20.329Z,7.00
2019-03-27T18:56:53.255Z,5.00
2019-03-27T18:59:24.803Z,6.43
2019-03-27T19:01:56.310Z,5.77
2019-03-27T19:04:27.841Z,10.47
2019-03-27T19:06:59.348Z,6.53
2019-03-27T19:09:30.964Z,8.20
2019-03-27T19:12:02.641Z,6.97
2019-03-27T19:14:34.131Z,9.23
2019-03-27T19:17:05.936Z,9.40
2019-03-27T19:19:37.470Z,13.33
2019-03-27T19:22:09.186Z,13.35
2019-03-27T19:24:41.071Z,8.77
2019-03-27T19:27:12.590Z,6.30
2019-03-27T19:29:45.062Z,7.63
2019-03-27T19:32:17.949Z,7.00
2019-03-27T19:34:51.084Z,8.00
2019-03-27T19:37:22.996Z,7.28
2019-03-27T19:39:54.490Z,6.43
2019-03-27T19:42:26.154Z,5.67
2019-03-27T19:44:57.601Z,8.10
2019-03-27T19:47:29.148Z,5.93
2019-03-27T19:50:01.052Z,8.73
2019-03-27T19:52:32.526Z,6.13
2019-03-27T19:55:05.468Z,6.85
2019-03-27T19:57:37.242Z,9.50
2019-03-27T20:00:10.611Z,9.75
2019-03-27T20:02:42.121Z,8.07
2019-03-27T20:05:14.006Z,8.75
2019-03-27T20:07:45.490Z,8.63
2019-03-27T20:10:17.398Z,8.63
2019-03-27T20:12:49.186Z,12.27
2019-03-27T20:15:20.700Z,15.17
2019-03-27T20:17:52.188Z,6.07
2019-03-27T20:20:24.085Z,10.57
2019-03-27T20:22:55.520Z,10.27
2019-03-27T20:25:27.220Z,12.57
2019-03-27T20:27:59.227Z,9.83
2019-03-27T20:30:30.793Z,9.90
2019-03-27T20:33:02.325Z,6.87
2019-03-27T20:35:34.223Z,10.03
2019-03-27T20:38:05.777Z,8.93
2019-03-27T20:40:37.292Z,11.00
2019-03-27T20:43:09.395Z,9.90
2019-03-27T20:45:41.237Z,12.98
2019-03-27T20:48:12.713Z,9.40
2019-03-27T20:50:44.453Z,13.27
2019-03-27T20:53:16.202Z,9.63
2019-03-27T20:55:47.781Z,11.50
2019-03-27T20:58:19.419Z,8.55
2019-03-27T21:00:51.555Z,9.90
2019-03-27T21:03:23.304Z,7.58
2019-03-27T21:05:59.693Z,13.17
2019-03-27T21:08:28.394Z,10.83
2019-03-27T21:11:00.224Z,11.23
2019-03-27T21:13:31.788Z,7.23
2019-03-27T21:16:03.296Z,9.13
2019-03-27T21:18:34.789Z,8.33
2019-03-27T21:21:06.579Z,8.67
2019-03-27T21:23:38.191Z,9.10
2019-03-27T21:26:09.904Z,10.13
2019-03-27T21:28:41.410Z,7.90
2019-03-27T21:31:13.466Z,9.85
2019-03-27T21:33:45.383Z,14.13
2019-03-27T21:36:18.212Z,8.90
2019-03-27T21:38:49.693Z,10.70
2019-03-27T21:41:21.544Z,12.47
2019-03-27T21:43:53.179Z,10.80
2019-03-27T21:46:24.719Z,9.30
2019-03-27T21:48:56.376Z,9.37
2019-03-27T21:51:27.839Z,8.53
2019-03-27T21:53:59.265Z,8.60
2019-03-27T21:56:30.793Z,7.97
2019-03-27T21:59:02.694Z,8.87
2019-03-27T22:01:34.243Z,9.07
2019-03-27T22:04:05.773Z,11.40
2019-03-27T22:06:37.391Z,9.20
2019-03-27T22:09:09.932Z,12.83
2019-03-27T22:11:41.380Z,14.57
2019-03-27T22:14:13.446Z,10.95
2019-03-27T22:16:45.230Z,10.57
2019-03-27T22:19:16.676Z,10.93
2019-03-27T22:21:48.393Z,11.13
2019-03-27T22:24:19.886Z,10.18
2019-03-27T22:26:51.387Z,12.93
2019-03-27T22:29:23.133Z,10.20
2019-03-27T22:31:54.595Z,13.23
2019-03-27T22:34:26.213Z,9.73
2019-03-27T22:36:57.685Z,8.87
2019-03-27T22:39:29.394Z,9.03
2019-03-27T22:42:00.885Z,11.43
2019-03-27T22:44:32.439Z,9.83
2019-03-27T22:47:05.620Z,8.30
2019-03-27T22:49:37.244Z,9.47
2019-03-27T22:52:09.085Z,11.07
2019-03-27T22:54:40.534Z,11.57
2019-03-27T22:57:12.056Z,9.08
2019-03-27T22:59:44.728Z,8.57
2019-03-27T23:02:16.421Z,8.27
2019-03-27T23:04:47.926Z,10.30
2019-03-27T23:07:19.551Z,8.13
2019-03-27T23:09:51.078Z,15.50
2019-03-27T23:12:22.840Z,8.37
2019-03-27T23:14:54.400Z,7.93
2019-03-27T23:17:25.936Z,9.37
2019-03-27T23:19:57.444Z,10.60
2019-03-27T23:22:28.868Z,10.57
2019-03-27T23:25:00.646Z,10.43
2019-03-27T23:27:32.028Z,8.87
2019-03-27T23:30:03.442Z,9.10
2019-03-27T23:32:34.972Z,11.17
2019-03-27T23:35:07.335Z,10.10
2019-03-27T23:37:38.727Z,9.93
2019-03-27T23:40:11.456Z,10.10
2019-03-27T23:42:42.870Z,8.37
2019-03-27T23:45:14.853Z,7.83
2019-03-27T23:47:46.474Z,9.70
2019-03-27T23:50:17.928Z,8.90
2019-03-27T23:52:49.700Z,10.47
2019-03-27T23:55:21.667Z,8.18
2019-03-27T23:57:53.146Z,8.27
